sensor_id;sensor_type;location;lat;lon;timestamp;P1;durP1;ratioP1;P2;durP2;ratioP2
4692;SDS011;11710;48.024;16.296;2023-02-03T06:33:19;0.80;;;0.80;;
4692;SDS011;11710;48.024;16.296;2023-02-03T06:35:46;0.90;;;0.90;;
4692;SDS011;11710;48.024;16.296;2023-02-03T06:38:13;1.10;;;1.00;;
4692;SDS011;11710;48.024;16.296;2023-02-03T06:40:40;1.23;;;1.13;;
4692;SDS011;11710;48.024;16.296;2023-02-03T06:43:07;1.45;;;1.00;;
4692;SDS011;11710;48.024;16.296;2023-02-03T06:45:34;1.05;;;0.88;;
4692;SDS011;11710;48.024;16.296;2023-02-03T06:48:02;0.80;;;0.80;;
4692;SDS011;11710;48.024;16.296;2023-02-03T06:50:30;0.85;;;0.85;;
4692;SDS011;11710;48.024;16.296;2023-02-03T06:52:57;1.00;;;0.90;;
4692;SDS011;11710;48.024;16.296;2023-02-03T06:55:26;1.98;;;0.90;;
4692;SDS011;11710;48.024;16.296;2023-02-03T06:57:53;0.80;;;0.80;;
4692;SDS011;11710;48.024;16.296;2023-02-03T07:00:20;0.85;;;0.85;;
4692;SDS011;11710;48.024;16.296;2023-02-03T07:02:52;1.05;;;1.00;;
4692;SDS011;11710;48.024;16.296;2023-02-03T07:05:19;1.08;;;0.95;;
4692;SDS011;11710;48.024;16.296;2023-02-03T07:07:49;0.90;;;0.90;;
4692;SDS011;11710;48.024;16.296;2023-02-03T07:10:17;1.30;;;1.20;;
4692;SDS011;11710;48.024;16.296;2023-02-03T07:12:44;1.10;;;1.10;;
4692;SDS011;11710;48.024;16.296;2023-02-03T07:15:12;1.00;;;1.00;;
4692;SDS011;11710;48.024;16.296;2023-02-03T07:17:39;1.35;;;1.25;;
4692;SDS011;11710;48.024;16.296;2023-02-03T07:20:07;1.38;;;1.27;;
4692;SDS011;11710;48.024;16.296;2023-02-03T07:22:35;0.90;;;0.90;;
4692;SDS011;11710;48.024;16.296;2023-02-03T07:25:06;1.25;;;1.10;;
4692;SDS011;11710;48.024;16.296;2023-02-03T07:27:33;1.27;;;1.20;;
4692;SDS011;11710;48.024;16.296;2023-02-03T07:30:01;1.52;;;1.42;;
4692;SDS011;11710;48.024;16.296;2023-02-03T07:32:29;1.45;;;1.35;;
4692;SDS011;11710;48.024;16.296;2023-02-03T07:34:56;1.40;;;1.30;;
4692;SDS011;11710;48.024;16.296;2023-02-03T07:37:25;1.63;;;1.25;;
4692;SDS011;11710;48.024;16.296;2023-02-03T07:39:53;2.05;;;1.75;;
4692;SDS011;11710;48.024;16.296;2023-02-03T07:42:21;1.88;;;1.70;;
4692;SDS011;11710;48.024;16.296;2023-02-03T07:44:49;1.48;;;1.38;;
4692;SDS011;11710;48.024;16.296;2023-02-03T07:47:16;1.85;;;1.48;;
4692;SDS011;11710;48.024;16.296;2023-02-03T07:49:43;3.65;;;1.60;;
4692;SDS011;11710;48.024;16.296;2023-02-03T07:52:10;3.72;;;1.58;;
4692;SDS011;11710;48.024;16.296;2023-02-03T07:54:37;1.90;;;1.80;;
4692;SDS011;11710;48.024;16.296;2023-02-03T07:57:04;2.28;;;2.03;;
4692;SDS011;11710;48.024;16.296;2023-02-03T07:59:33;2.40;;;1.50;;
4692;SDS011;11710;48.024;16.296;2023-02-03T08:02:00;1.65;;;1.55;;
4692;SDS011;11710;48.024;16.296;2023-02-03T08:04:27;1.50;;;1.40;;
4692;SDS011;11710;48.024;16.296;2023-02-03T08:06:55;2.92;;;2.10;;
4692;SDS011;11710;48.024;16.296;2023-02-03T08:09:22;2.75;;;2.17;;
4692;SDS011;11710;48.024;16.296;2023-02-03T08:11:49;3.25;;;1.98;;
4692;SDS011;11710;48.024;16.296;2023-02-03T08:14:16;1.55;;;1.45;;
4692;SDS011;11710;48.024;16.296;2023-02-03T08:16:45;1.60;;;1.50;;
4692;SDS011;11710;48.024;16.296;2023-02-03T08:19:12;2.20;;;1.55;;
4692;SDS011;11710;48.024;16.296;2023-02-03T08:21:40;1.73;;;1.63;;
4692;SDS011;11710;48.024;16.296;2023-02-03T08:24:07;1.60;;;1.50;;
4692;SDS011;11710;48.024;16.296;2023-02-03T08:26:34;1.88;;;1.77;;
4692;SDS011;11710;48.024;16.296;2023-02-03T08:29:02;1.55;;;1.45;;
4692;SDS011;11710;48.024;16.296;2023-02-03T08:31:29;1.77;;;1.42;;
4692;SDS011;11710;48.024;16.296;2023-02-03T08:33:58;1.40;;;1.30;;
4692;SDS011;11710;48.024;16.296;2023-02-03T08:36:25;1.80;;;1.70;;
4692;SDS011;11710;48.024;16.296;2023-02-03T08:38:52;1.60;;;1.50;;
4692;SDS011;11710;48.024;16.296;2023-02-03T08:41:20;2.25;;;1.70;;
4692;SDS011;11710;48.024;16.296;2023-02-03T08:43:47;2.10;;;1.90;;
4692;SDS011;11710;48.024;16.296;2023-02-03T08:46:15;2.28;;;2.08;;
4692;SDS011;11710;48.024;16.296;2023-02-03T08:48:42;4.00;;;1.58;;
4692;SDS011;11710;48.024;16.296;2023-02-03T08:51:11;2.97;;;2.15;;
4692;SDS011;11710;48.024;16.296;2023-02-03T08:53:40;3.80;;;2.03;;
4692;SDS011;11710;48.024;16.296;2023-02-03T08:56:09;2.97;;;1.60;;
4692;SDS011;11710;48.024;16.296;2023-02-03T08:58:37;1.88;;;1.75;;
4692;SDS011;11710;48.024;16.296;2023-02-03T09:01:06;2.75;;;1.80;;
4692;SDS011;11710;48.024;16.296;2023-02-03T09:03:34;2.17;;;1.98;;
4692;SDS011;11710;48.024;16.296;2023-02-03T09:06:02;6.80;;;2.60;;
4692;SDS011;11710;48.024;16.296;2023-02-03T09:08:31;3.13;;;2.40;;
4692;SDS011;11710;48.024;16.296;2023-02-03T09:10:59;3.47;;;2.30;;
4692;SDS011;11710;48.024;16.296;2023-02-03T09:13:26;3.50;;;2.10;;
4692;SDS011;11710;48.024;16.296;2023-02-03T09:15:53;6.50;;;1.95;;
4692;SDS011;11710;48.024;16.296;2023-02-03T09:18:20;2.80;;;2.20;;
4692;SDS011;11710;48.024;16.296;2023-02-03T09:20:47;2.22;;;1.90;;
4692;SDS011;11710;48.024;16.296;2023-02-03T09:23:15;1.70;;;1.60;;
4692;SDS011;11710;48.024;16.296;2023-02-03T09:25:43;1.55;;;1.45;;
4692;SDS011;11710;48.024;16.296;2023-02-03T09:28:10;1.73;;;1.60;;
4692;SDS011;11710;48.024;16.296;2023-02-03T09:30:37;1.65;;;1.55;;
4692;SDS011;11710;48.024;16.296;2023-02-03T09:33:05;1.95;;;1.63;;
4692;SDS011;11710;48.024;16.296;2023-02-03T09:35:32;2.20;;;1.80;;
4692;SDS011;11710;48.024;16.296;2023-02-03T09:37:59;1.50;;;1.40;;
4692;SDS011;11710;48.024;16.296;2023-02-03T09:40:29;4.38;;;1.80;;
4692;SDS011;11710;48.024;16.296;2023-02-03T09:43:06;1.60;;;1.50;;
4692;SDS011;11710;48.024;16.296;2023-02-03T09:45:40;1.40;;;1.30;;
4692;SDS011;11710;48.024;16.296;2023-02-03T09:48:09;1.33;;;1.23;;
4692;SDS011;11710;48.024;16.296;2023-02-03T09:50:40;1.55;;;1.30;;
4692;SDS011;11710;48.024;16.296;2023-02-03T09:53:11;1.83;;;1.40;;
4692;SDS011;11710;48.024;16.296;2023-02-03T09:55:46;1.42;;;1.33;;
4692;SDS011;11710;48.024;16.296;2023-02-03T09:58:15;1.60;;;1.40;;
4692;SDS011;11710;48.024;16.296;2023-02-03T10:00:48;1.48;;;1.35;;
4692;SDS011;11710;48.024;16.296;2023-02-03T10:03:24;1.85;;;1.30;;
4692;SDS011;11710;48.024;16.296;2023-02-03T10:06:04;1.80;;;1.20;;
4692;SDS011;11710;48.024;16.296;2023-02-03T10:08:47;1.20;;;1.10;;
4692;SDS011;11710;48.024;16.296;2023-02-03T10:11:27;1.40;;;1.30;;
4692;SDS011;11710;48.024;16.296;2023-02-03T10:14:15;1.77;;;1.17;;
4692;SDS011;11710;48.024;16.296;2023-02-03T10:16:56;1.10;;;1.00;;
4692;SDS011;11710;48.024;16.296;2023-02-03T10:19:36;1.90;;;1.48;;
4692;SDS011;11710;48.024;16.296;2023-02-03T10:22:10;2.25;;;1.30;;
4692;SDS011;11710;48.024;16.296;2023-02-03T10:24:43;1.58;;;1.48;;
4692;SDS011;11710;48.024;16.296;2023-02-03T10:27:15;1.60;;;1.40;;
4692;SDS011;11710;48.024;16.296;2023-02-03T10:29:45;1.42;;;1.30;;
4692;SDS011;11710;48.024;16.296;2023-02-03T10:32:22;1.10;;;1.00;;
4692;SDS011;11710;48.024;16.296;2023-02-03T10:34:51;1.40;;;1.30;;
4692;SDS011;11710;48.024;16.296;2023-02-03T10:37:22;1.50;;;1.40;;
4692;SDS011;11710;48.024;16.296;2023-02-03T10:39:53;1.30;;;1.20;;
4692;SDS011;11710;48.024;16.296;2023-02-03T10:42:22;1.25;;;1.15;;
4692;SDS011;11710;48.024;16.296;2023-02-03T10:44:52;1.98;;;1.50;;
4692;SDS011;11710;48.024;16.296;2023-02-03T10:47:23;1.42;;;1.30;;
4692;SDS011;11710;48.024;16.296;2023-02-03T10:49:54;1.50;;;1.20;;
4692;SDS011;11710;48.024;16.296;2023-02-03T10:52:25;1.05;;;1.05;;
4692;SDS011;11710;48.024;16.296;2023-02-03T10:54:54;1.90;;;1.00;;
4692;SDS011;11710;48.024;16.296;2023-02-03T10:57:23;1.25;;;1.15;;
4692;SDS011;11710;48.024;16.296;2023-02-03T11:00:02;3.78;;;1.13;;
4692;SDS011;11710;48.024;16.296;2023-02-03T11:02:33;1.45;;;1.20;;
4692;SDS011;11710;48.024;16.296;2023-02-03T11:05:08;1.00;;;1.00;;
4692;SDS011;11710;48.024;16.296;2023-02-03T11:07:44;1.38;;;1.20;;
4692;SDS011;11710;48.024;16.296;2023-02-03T11:10:25;2.13;;;1.35;;
4692;SDS011;11710;48.024;16.296;2023-02-03T11:13:18;2.10;;;1.60;;
4692;SDS011;11710;48.024;16.296;2023-02-03T11:15:52;1.02;;;1.00;;
4692;SDS011;11710;48.024;16.296;2023-02-03T11:18:29;1.50;;;1.40;;
4692;SDS011;11710;48.024;16.296;2023-02-03T11:21:05;1.00;;;0.90;;
4692;SDS011;11710;48.024;16.296;2023-02-03T11:23:34;1.30;;;1.20;;
4692;SDS011;11710;48.024;16.296;2023-02-03T11:26:09;1.50;;;1.20;;
4692;SDS011;11710;48.024;16.296;2023-02-03T11:28:40;1.10;;;1.00;;
4692;SDS011;11710;48.024;16.296;2023-02-03T11:31:18;0.90;;;0.90;;
4692;SDS011;11710;48.024;16.296;2023-02-03T11:33:53;1.00;;;1.00;;
4692;SDS011;11710;48.024;16.296;2023-02-03T11:36:24;1.00;;;1.00;;
4692;SDS011;11710;48.024;16.296;2023-02-03T11:39:01;1.50;;;1.10;;
4692;SDS011;11710;48.024;16.296;2023-02-03T11:41:51;4.05;;;1.70;;
4692;SDS011;11710;48.024;16.296;2023-02-03T11:44:20;1.00;;;1.00;;
4692;SDS011;11710;48.024;16.296;2023-02-03T11:46:53;2.95;;;1.95;;
4692;SDS011;11710;48.024;16.296;2023-02-03T11:52:35;1.30;;;1.20;;
4692;SDS011;11710;48.024;16.296;2023-02-03T11:55:28;1.83;;;1.30;;
4692;SDS011;11710;48.024;16.296;2023-02-03T11:58:13;1.48;;;1.17;;
4692;SDS011;11710;48.024;16.296;2023-02-03T12:01:02;1.25;;;1.13;;
4692;SDS011;11710;48.024;16.296;2023-02-03T12:03:46;1.25;;;1.15;;
4692;SDS011;11710;48.024;16.296;2023-02-03T12:06:49;1.08;;;1.02;;
4692;SDS011;11710;48.024;16.296;2023-02-03T12:09:33;1.13;;;1.02;;
4692;SDS011;11710;48.024;16.296;2023-02-03T12:12:20;1.00;;;1.00;;
4692;SDS011;11710;48.024;16.296;2023-02-03T12:15:01;2.47;;;1.10;;
4692;SDS011;11710;48.024;16.296;2023-02-03T12:17:45;1.45;;;1.15;;
4692;SDS011;11710;48.024;16.296;2023-02-03T12:20:39;1.20;;;1.10;;
4692;SDS011;11710;48.024;16.296;2023-02-03T12:23:23;1.10;;;1.02;;
4692;SDS011;11710;48.024;16.296;2023-02-03T12:26:04;0.90;;;0.90;;
4692;SDS011;11710;48.024;16.296;2023-02-03T12:28:42;1.10;;;1.00;;
4692;SDS011;11710;48.024;16.296;2023-02-03T12:31:14;1.10;;;1.00;;
4692;SDS011;11710;48.024;16.296;2023-02-03T12:33:48;1.23;;;1.15;;
4692;SDS011;11710;48.024;16.296;2023-02-03T12:36:22;2.08;;;1.30;;
4692;SDS011;11710;48.024;16.296;2023-02-03T12:38:53;1.23;;;1.10;;
4692;SDS011;11710;48.024;16.296;2023-02-03T12:41:26;1.00;;;1.00;;
4692;SDS011;11710;48.024;16.296;2023-02-03T12:43:58;1.00;;;1.00;;
4692;SDS011;11710;48.024;16.296;2023-02-03T12:46:31;1.40;;;1.17;;
4692;SDS011;11710;48.024;16.296;2023-02-03T12:49:09;2.25;;;1.00;;
4692;SDS011;11710;48.024;16.296;2023-02-03T12:51:40;1.10;;;1.10;;
4692;SDS011;11710;48.024;16.296;2023-02-03T12:54:19;1.48;;;1.10;;
4692;SDS011;11710;48.024;16.296;2023-02-03T12:56:48;1.20;;;1.10;;
4692;SDS011;11710;48.024;16.296;2023-02-03T12:59:18;1.33;;;1.20;;
4692;SDS011;11710;48.024;16.296;2023-02-03T13:01:48;0.95;;;0.95;;
4692;SDS011;11710;48.024;16.296;2023-02-03T13:04:20;2.20;;;1.40;;
4692;SDS011;11710;48.024;16.296;2023-02-03T13:06:54;1.15;;;1.05;;
4692;SDS011;11710;48.024;16.296;2023-02-03T13:09:27;1.80;;;1.30;;
4692;SDS011;11710;48.024;16.296;2023-02-03T13:11:57;1.40;;;1.30;;
4692;SDS011;11710;48.024;16.296;2023-02-03T13:14:27;1.52;;;1.30;;
4692;SDS011;11710;48.024;16.296;2023-02-03T13:16:57;2.03;;;1.10;;
4692;SDS011;11710;48.024;16.296;2023-02-03T13:19:27;1.65;;;1.35;;
4692;SDS011;11710;48.024;16.296;2023-02-03T13:21:57;1.50;;;1.40;;
4692;SDS011;11710;48.024;16.296;2023-02-03T13:24:24;1.15;;;1.05;;
4692;SDS011;11710;48.024;16.296;2023-02-03T13:26:59;1.30;;;1.20;;
4692;SDS011;11710;48.024;16.296;2023-02-03T13:29:40;1.13;;;1.02;;
4692;SDS011;11710;48.024;16.296;2023-02-03T13:32:18;0.90;;;0.90;;
4692;SDS011;11710;48.024;16.296;2023-02-03T13:35:07;1.70;;;1.45;;
4692;SDS011;11710;48.024;16.296;2023-02-03T13:37:42;1.25;;;1.00;;
4692;SDS011;11710;48.024;16.296;2023-02-03T13:40:16;1.30;;;1.20;;
4692;SDS011;11710;48.024;16.296;2023-02-03T13:42:48;1.00;;;1.00;;
4692;SDS011;11710;48.024;16.296;2023-02-03T13:45:21;0.90;;;0.90;;
4692;SDS011;11710;48.024;16.296;2023-02-03T13:47:51;1.80;;;0.90;;
4692;SDS011;11710;48.024;16.296;2023-02-03T13:50:20;1.20;;;1.10;;
4692;SDS011;11710;48.024;16.296;2023-02-03T13:52:55;1.10;;;1.00;;
4692;SDS011;11710;48.024;16.296;2023-02-03T13:55:26;1.00;;;1.00;;
4692;SDS011;11710;48.024;16.296;2023-02-03T13:57:55;1.13;;;0.98;;
4692;SDS011;11710;48.024;16.296;2023-02-03T14:03:14;1.23;;;1.05;;
4692;SDS011;11710;48.024;16.296;2023-02-03T14:05:44;1.90;;;1.40;;
4692;SDS011;11710;48.024;16.296;2023-02-03T14:14:01;1.80;;;1.00;;
4692;SDS011;11710;48.024;16.296;2023-02-03T14:16:48;1.02;;;1.00;;
4692;SDS011;11710;48.024;16.296;2023-02-03T14:22:04;1.85;;;1.20;;
4692;SDS011;11710;48.024;16.296;2023-02-03T14:24:33;1.10;;;1.00;;
4692;SDS011;11710;48.024;16.296;2023-02-03T14:27:03;2.00;;;1.33;;
4692;SDS011;11710;48.024;16.296;2023-02-03T14:29:33;1.00;;;1.00;;
4692;SDS011;11710;48.024;16.296;2023-02-03T14:32:01;1.35;;;1.25;;
4692;SDS011;11710;48.024;16.296;2023-02-03T14:34:31;2.00;;;1.20;;
4692;SDS011;11710;48.024;16.296;2023-02-03T14:37:10;1.30;;;1.20;;
4692;SDS011;11710;48.024;16.296;2023-02-03T14:39:45;1.80;;;1.40;;
4692;SDS011;11710;48.024;16.296;2023-02-03T14:45:09;2.10;;;1.90;;
4692;SDS011;11710;48.024;16.296;2023-02-03T14:47:44;1.35;;;1.25;;
4692;SDS011;11710;48.024;16.296;2023-02-03T14:50:17;2.35;;;1.40;;
4692;SDS011;11710;48.024;16.296;2023-02-03T14:52:51;1.85;;;1.40;;
4692;SDS011;11710;48.024;16.296;2023-02-03T14:55:25;1.20;;;1.10;;
4692;SDS011;11710;48.024;16.296;2023-02-03T14:57:55;1.38;;;1.20;;
4692;SDS011;11710;48.024;16.296;2023-02-03T15:00:27;1.65;;;1.40;;
4692;SDS011;11710;48.024;16.296;2023-02-03T15:03:15;1.98;;;1.40;;
4692;SDS011;11710;48.024;16.296;2023-02-03T15:05:47;1.30;;;1.20;;
4692;SDS011;11710;48.024;16.296;2023-02-03T15:08:35;2.20;;;1.17;;
4692;SDS011;11710;48.024;16.296;2023-02-03T15:11:23;1.35;;;1.25;;
4692;SDS011;11710;48.024;16.296;2023-02-03T15:13:51;1.85;;;1.25;;
4692;SDS011;11710;48.024;16.296;2023-02-03T15:16:22;1.52;;;1.20;;
4692;SDS011;11710;48.024;16.296;2023-02-03T15:18:55;1.30;;;1.20;;
4692;SDS011;11710;48.024;16.296;2023-02-03T15:21:24;1.20;;;1.20;;
4692;SDS011;11710;48.024;16.296;2023-02-03T15:23:52;1.83;;;1.52;;
4692;SDS011;11710;48.024;16.296;2023-02-03T15:26:20;1.60;;;1.48;;
4692;SDS011;11710;48.024;16.296;2023-02-03T15:28:55;1.42;;;1.23;;
4692;SDS011;11710;48.024;16.296;2023-02-03T15:31:30;2.60;;;1.40;;
4692;SDS011;11710;48.024;16.296;2023-02-03T15:33:59;1.60;;;1.20;;
4692;SDS011;11710;48.024;16.296;2023-02-03T15:36:30;1.20;;;1.10;;
4692;SDS011;11710;48.024;16.296;2023-02-03T15:39:02;1.33;;;1.10;;
4692;SDS011;11710;48.024;16.296;2023-02-03T15:41:34;1.50;;;1.30;;
4692;SDS011;11710;48.024;16.296;2023-02-03T15:44:05;1.40;;;1.30;;
4692;SDS011;11710;48.024;16.296;2023-02-03T15:46:37;2.15;;;1.60;;
4692;SDS011;11710;48.024;16.296;2023-02-03T15:49:05;2.15;;;1.30;;
4692;SDS011;11710;48.024;16.296;2023-02-03T15:51:35;1.50;;;1.40;;
4692;SDS011;11710;48.024;16.296;2023-02-03T15:54:04;1.80;;;1.70;;
4692;SDS011;11710;48.024;16.296;2023-02-03T15:56:37;1.33;;;1.23;;
4692;SDS011;11710;48.024;16.296;2023-02-03T15:59:14;1.45;;;1.25;;
4692;SDS011;11710;48.024;16.296;2023-02-03T16:01:46;1.30;;;1.20;;
4692;SDS011;11710;48.024;16.296;2023-02-03T16:04:14;1.20;;;1.10;;
4692;SDS011;11710;48.024;16.296;2023-02-03T16:06:43;1.50;;;1.30;;
4692;SDS011;11710;48.024;16.296;2023-02-03T16:09:25;1.58;;;1.40;;
4692;SDS011;11710;48.024;16.296;2023-02-03T16:12:04;1.33;;;1.23;;
4692;SDS011;11710;48.024;16.296;2023-02-03T16:14:32;1.42;;;1.33;;
4692;SDS011;11710;48.024;16.296;2023-02-03T16:17:01;2.20;;;1.50;;
4692;SDS011;11710;48.024;16.296;2023-02-03T16:19:29;1.35;;;1.25;;
4692;SDS011;11710;48.024;16.296;2023-02-03T16:21:58;2.60;;;1.63;;
4692;SDS011;11710;48.024;16.296;2023-02-03T16:24:28;1.63;;;1.40;;
4692;SDS011;11710;48.024;16.296;2023-02-03T16:29:41;1.83;;;1.70;;
4692;SDS011;11710;48.024;16.296;2023-02-03T16:32:27;3.03;;;2.20;;
4692;SDS011;11710;48.024;16.296;2023-02-03T16:35:12;2.42;;;2.00;;
4692;SDS011;11710;48.024;16.296;2023-02-03T16:38:03;2.60;;;2.20;;
4692;SDS011;11710;48.024;16.296;2023-02-03T16:40:48;3.92;;;2.30;;
4692;SDS011;11710;48.024;16.296;2023-02-03T16:43:33;1.92;;;1.60;;
4692;SDS011;11710;48.024;16.296;2023-02-03T16:46:18;1.95;;;1.50;;
4692;SDS011;11710;48.024;16.296;2023-02-03T16:49:05;2.78;;;1.75;;
4692;SDS011;11710;48.024;16.296;2023-02-03T16:51:49;1.88;;;1.70;;
4692;SDS011;11710;48.024;16.296;2023-02-03T16:54:17;2.13;;;1.77;;
4692;SDS011;11710;48.024;16.296;2023-02-03T16:56:44;1.67;;;1.58;;
4692;SDS011;11710;48.024;16.296;2023-02-03T16:59:11;1.95;;;1.70;;
4692;SDS011;11710;48.024;16.296;2023-02-03T17:01:40;1.50;;;1.40;;
4692;SDS011;11710;48.024;16.296;2023-02-03T17:04:10;1.50;;;1.40;;
4692;SDS011;11710;48.024;16.296;2023-02-03T17:06:37;2.08;;;1.40;;
4692;SDS011;11710;48.024;16.296;2023-02-03T17:09:04;1.35;;;1.25;;
4692;SDS011;11710;48.024;16.296;2023-02-03T17:11:32;1.92;;;1.60;;
4692;SDS011;11710;48.024;16.296;2023-02-03T17:13:59;1.77;;;1.50;;
4692;SDS011;11710;48.024;16.296;2023-02-03T17:16:27;1.60;;;1.50;;
4692;SDS011;11710;48.024;16.296;2023-02-03T17:18:55;1.60;;;1.35;;
4692;SDS011;11710;48.024;16.296;2023-02-03T17:21:25;1.30;;;1.20;;
4692;SDS011;11710;48.024;16.296;2023-02-03T17:23:52;1.90;;;1.80;;
4692;SDS011;11710;48.024;16.296;2023-02-03T17:26:20;1.83;;;1.73;;
4692;SDS011;11710;48.024;16.296;2023-02-03T17:28:47;1.50;;;1.40;;
4692;SDS011;11710;48.024;16.296;2023-02-03T17:31:16;2.38;;;2.08;;
4692;SDS011;11710;48.024;16.296;2023-02-03T17:33:43;2.95;;;1.80;;
4692;SDS011;11710;48.024;16.296;2023-02-03T17:36:12;1.92;;;1.83;;
4692;SDS011;11710;48.024;16.296;2023-02-03T17:38:42;2.78;;;2.50;;
4692;SDS011;11710;48.024;16.296;2023-02-03T17:41:10;1.50;;;1.40;;
4692;SDS011;11710;48.024;16.296;2023-02-03T17:43:39;2.03;;;1.70;;
4692;SDS011;11710;48.024;16.296;2023-02-03T17:46:06;3.50;;;2.00;;
4692;SDS011;11710;48.024;16.296;2023-02-03T17:48:34;3.45;;;2.30;;
4692;SDS011;11710;48.024;16.296;2023-02-03T17:51:05;1.73;;;1.60;;
4692;SDS011;11710;48.024;16.296;2023-02-03T17:53:33;2.22;;;1.70;;
4692;SDS011;11710;48.024;16.296;2023-02-03T17:56:08;2.45;;;1.90;;
4692;SDS011;11710;48.024;16.296;2023-02-03T17:58:36;2.72;;;1.70;;
4692;SDS011;11710;48.024;16.296;2023-02-03T18:01:07;2.20;;;1.98;;
4692;SDS011;11710;48.024;16.296;2023-02-03T18:03:40;2.20;;;2.00;;
4692;SDS011;11710;48.024;16.296;2023-02-03T18:06:08;3.50;;;2.50;;
4692;SDS011;11710;48.024;16.296;2023-02-03T18:08:35;2.42;;;1.92;;
4692;SDS011;11710;48.024;16.296;2023-02-03T18:11:03;2.15;;;1.80;;
4692;SDS011;11710;48.024;16.296;2023-02-03T18:13:32;2.28;;;2.00;;
4692;SDS011;11710;48.024;16.296;2023-02-03T18:16:01;1.90;;;1.80;;
4692;SDS011;11710;48.024;16.296;2023-02-03T18:18:29;1.90;;;1.50;;
4692;SDS011;11710;48.024;16.296;2023-02-03T18:21:01;3.95;;;1.98;;
4692;SDS011;11710;48.024;16.296;2023-02-03T18:23:28;4.60;;;2.20;;
4692;SDS011;11710;48.024;16.296;2023-02-03T18:25:56;2.30;;;1.95;;
4692;SDS011;11710;48.024;16.296;2023-02-03T18:28:24;2.30;;;2.10;;
4692;SDS011;11710;48.024;16.296;2023-02-03T18:30:58;2.60;;;2.38;;
4692;SDS011;11710;48.024;16.296;2023-02-03T18:33:25;2.30;;;2.00;;
4692;SDS011;11710;48.024;16.296;2023-02-03T18:35:53;6.55;;;2.28;;
4692;SDS011;11710;48.024;16.296;2023-02-03T18:38:22;2.20;;;2.00;;
4692;SDS011;11710;48.024;16.296;2023-02-03T18:40:50;4.90;;;2.22;;
4692;SDS011;11710;48.024;16.296;2023-02-03T18:43:19;2.50;;;2.30;;
4692;SDS011;11710;48.024;16.296;2023-02-03T18:45:46;1.90;;;1.75;;
4692;SDS011;11710;48.024;16.296;2023-02-03T18:48:15;2.50;;;1.90;;
4692;SDS011;11710;48.024;16.296;2023-02-03T18:50:43;1.92;;;1.83;;
4692;SDS011;11710;48.024;16.296;2023-02-03T18:53:10;1.88;;;1.77;;
4692;SDS011;11710;48.024;16.296;2023-02-03T18:55:39;4.15;;;3.03;;
4692;SDS011;11710;48.024;16.296;2023-02-03T18:58:07;2.30;;;2.10;;
4692;SDS011;11710;48.024;16.296;2023-02-03T19:00:35;2.58;;;2.30;;
4692;SDS011;11710;48.024;16.296;2023-02-03T19:03:03;5.88;;;2.80;;
4692;SDS011;11710;48.024;16.296;2023-02-03T19:05:33;4.85;;;2.40;;
4692;SDS011;11710;48.024;16.296;2023-02-03T19:08:00;2.60;;;2.40;;
4692;SDS011;11710;48.024;16.296;2023-02-03T19:10:28;4.30;;;3.03;;
4692;SDS011;11710;48.024;16.296;2023-02-03T19:12:56;3.60;;;2.75;;
4692;SDS011;11710;48.024;16.296;2023-02-03T19:15:23;4.65;;;2.63;;
4692;SDS011;11710;48.024;16.296;2023-02-03T19:17:51;2.45;;;2.20;;
4692;SDS011;11710;48.024;16.296;2023-02-03T19:20:18;2.60;;;2.40;;
4692;SDS011;11710;48.024;16.296;2023-02-03T19:22:47;1.98;;;1.75;;
4692;SDS011;11710;48.024;16.296;2023-02-03T19:25:15;1.90;;;1.80;;
4692;SDS011;11710;48.024;16.296;2023-02-03T19:27:43;2.30;;;2.10;;
4692;SDS011;11710;48.024;16.296;2023-02-03T19:30:11;3.33;;;2.70;;
4692;SDS011;11710;48.024;16.296;2023-02-03T19:32:38;2.40;;;2.15;;
4692;SDS011;11710;48.024;16.296;2023-02-03T19:35:06;1.85;;;1.75;;
4692;SDS011;11710;48.024;16.296;2023-02-03T19:37:33;2.17;;;1.98;;
4692;SDS011;11710;48.024;16.296;2023-02-03T19:40:04;2.10;;;1.50;;
4692;SDS011;11710;48.024;16.296;2023-02-03T19:42:31;3.65;;;2.60;;
